Terminal Aerodrome Forecast
Issued by NWS

Current Version | Previous Version | Graphics & Text | Print | Product List | Glossary On
Versions: 1 2 3 4 5 6 7 8 9 10 11 12 13 14 15 16 17 18
252
FTUS41 KILN 270827 AAA
TAFLCK
TAF AMD
KLCK 270827Z 2708/2806 22005KT 5SM BR SCT120 BKN250
     FM271600 24007KT P6SM SCT025 BKN090
     FM272100 20006KT P6SM VCSH SCT025 BKN120
     FM280100 16005KT P6SM -SHRA VCTS SCT025CB BKN070
     FM280300 16006KT 5SM -SHRA VCTS BKN025CB OVC070=

USA.gov is the U.S. government's official web portal to all federal, state and local government web resources and services.